createdAt,value
2023-03-25T00:01:42.109Z,12.04
2023-03-25T00:06:42.010Z,11.99
2023-03-25T00:11:41.935Z,11.89
2023-03-25T00:16:41.919Z,11.75
2023-03-25T00:21:41.777Z,11.61
2023-03-25T00:26:41.706Z,11.64
2023-03-25T00:31:41.638Z,11.57
2023-03-25T00:36:41.577Z,11.71
2023-03-25T00:41:41.532Z,11.61
2023-03-25T00:46:41.507Z,11.38
2023-03-25T00:51:53.217Z,11.28
2023-03-25T00:56:42.357Z,11.34
2023-03-25T01:01:41.256Z,11.39
2023-03-25T01:06:41.174Z,11.46
2023-03-25T01:11:41.108Z,11.47
2023-03-25T01:16:41.045Z,11.28
2023-03-25T01:21:40.984Z,11.17
2023-03-25T01:26:40.909Z,11.41
2023-03-25T01:31:40.897Z,11.35
2023-03-25T01:36:40.779Z,11.32
2023-03-25T01:41:49.254Z,11.20
2023-03-25T01:46:41.679Z,11.20
2023-03-25T01:51:40.634Z,11.50
2023-03-25T01:56:40.575Z,11.64
2023-03-25T02:01:40.450Z,11.61
2023-03-25T02:06:40.398Z,11.44
2023-03-25T02:11:40.329Z,11.54
2023-03-25T02:16:40.309Z,11.52
2023-03-25T02:21:40.182Z,11.61
2023-03-25T02:26:40.131Z,11.56
2023-03-25T02:31:40.091Z,11.50
2023-03-25T02:36:39.990Z,11.49
2023-03-25T02:41:39.925Z,11.50
2023-03-25T02:46:39.857Z,11.47
2023-03-25T02:51:39.786Z,11.39
2023-03-25T02:56:39.745Z,11.46
2023-03-25T03:01:39.689Z,11.41
2023-03-25T03:06:39.589Z,11.59
2023-03-25T03:11:39.514Z,11.96
2023-03-25T03:16:39.523Z,11.89
2023-03-25T03:21:39.398Z,12.02
2023-03-25T03:26:39.324Z,11.96
2023-03-25T03:31:48.285Z,11.99
2023-03-25T03:36:40.190Z,12.04
2023-03-25T03:41:39.122Z,11.96
2023-03-25T03:46:39.128Z,11.99
2023-03-25T03:51:38.983Z,11.86
2023-03-25T03:56:38.942Z,11.75
2023-03-25T04:01:38.879Z,11.72
2023-03-25T04:06:38.829Z,11.68
2023-03-25T04:11:38.729Z,11.62
2023-03-25T04:16:38.731Z,11.57
2023-03-25T04:21:38.595Z,11.41
2023-03-25T04:26:38.537Z,11.54
2023-03-25T04:31:38.486Z,11.44
2023-03-25T04:36:38.408Z,11.44
2023-03-25T04:41:38.326Z,11.36
2023-03-25T04:46:38.277Z,11.56
2023-03-25T04:51:38.224Z,11.68
2023-03-25T04:56:38.163Z,11.68
2023-03-25T05:01:38.171Z,11.80
2023-03-25T05:06:37.992Z,11.93
2023-03-25T05:11:37.927Z,12.09
2023-03-25T05:16:37.922Z,12.13
2023-03-25T05:21:37.782Z,11.97
2023-03-25T05:26:37.744Z,12.04
2023-03-25T05:31:37.672Z,12.31
2023-03-25T05:36:37.587Z,12.45
2023-03-25T05:41:37.515Z,12.64
2023-03-25T05:46:37.452Z,12.74
2023-03-25T05:51:37.617Z,12.71
2023-03-25T05:56:37.345Z,12.66
2023-03-25T06:01:37.251Z,12.74
2023-03-25T06:06:37.218Z,12.59
2023-03-25T06:11:37.111Z,13.14
2023-03-25T06:16:37.094Z,13.06
2023-03-25T06:21:36.987Z,13.07
2023-03-25T06:26:36.916Z,12.63
2023-03-25T06:31:36.876Z,12.89
2023-03-25T06:36:36.808Z,13.37
2023-03-25T06:41:36.720Z,15.06
2023-03-25T06:46:36.700Z,16.80
2023-03-25T06:51:36.593Z,17.46
2023-03-25T06:56:36.583Z,17.97
2023-03-25T07:01:36.531Z,17.53
2023-03-25T07:06:36.395Z,17.54
2023-03-25T07:11:36.352Z,16.88
2023-03-25T07:16:36.290Z,17.54
2023-03-25T07:21:36.207Z,17.57
2023-03-25T07:26:36.145Z,17.10
2023-03-25T07:31:36.103Z,18.12
2023-03-25T07:36:36.006Z,17.95
2023-03-25T07:41:35.929Z,16.77
2023-03-25T07:46:35.937Z,16.48
2023-03-25T07:51:35.800Z,16.49
2023-03-25T07:56:35.767Z,16.14
2023-03-25T08:01:35.697Z,15.96
2023-03-25T08:06:35.610Z,16.03
2023-03-25T08:11:35.569Z,15.82
2023-03-25T08:16:35.501Z,16.06
2023-03-25T08:21:35.434Z,15.49
2023-03-25T08:26:35.343Z,15.30
2023-03-25T08:31:35.299Z,14.98
2023-03-25T08:36:35.198Z,13.70
2023-03-25T08:41:35.123Z,13.84
2023-03-25T08:46:35.114Z,13.79
2023-03-25T08:51:35.022Z,13.33
2023-03-25T08:56:34.978Z,14.64
2023-03-25T09:01:34.981Z,15.03
2023-03-25T09:06:47.750Z,15.64
2023-03-25T09:16:34.731Z,15.28
2023-03-25T09:21:34.647Z,15.39
2023-03-25T09:26:34.522Z,15.72
2023-03-25T09:31:34.497Z,15.41
2023-03-25T09:36:34.397Z,14.16
2023-03-25T09:41:34.326Z,13.77
2023-03-25T09:46:34.342Z,13.55
2023-03-25T09:51:34.199Z,12.64
2023-03-25T09:56:35.753Z,13.69
2023-03-25T10:01:35.189Z,13.96
2023-03-25T10:06:34.045Z,13.71
2023-03-25T10:11:33.924Z,14.01
2023-03-25T10:16:33.963Z,14.56
2023-03-25T10:21:33.797Z,14.49
2023-03-25T10:26:33.728Z,15.17
2023-03-25T10:31:33.707Z,15.64
2023-03-25T10:36:33.602Z,15.54
2023-03-25T10:41:33.553Z,15.85
2023-03-25T10:46:33.507Z,16.09
2023-03-25T10:51:33.393Z,16.14
2023-03-25T10:56:33.450Z,16.38
2023-03-25T11:01:33.259Z,15.74
2023-03-25T11:06:33.224Z,15.42
2023-03-25T11:11:33.127Z,14.81
2023-03-25T11:16:33.151Z,14.04
2023-03-25T11:21:33.029Z,14.64
2023-03-25T11:26:32.944Z,15.02
2023-03-25T11:31:32.902Z,14.62
2023-03-25T11:36:32.846Z,13.88
2023-03-25T11:41:32.792Z,13.74
2023-03-25T11:46:32.683Z,13.79
2023-03-25T11:51:32.593Z,13.79
2023-03-25T11:56:32.543Z,13.96
2023-03-25T12:01:32.467Z,13.76
2023-03-25T12:06:32.452Z,14.02
2023-03-25T12:11:32.322Z,14.24
2023-03-25T12:16:32.315Z,14.01
2023-03-25T12:21:32.195Z,14.31
2023-03-25T12:26:32.122Z,15.08
2023-03-25T12:31:32.118Z,15.48
2023-03-25T12:36:32.046Z,15.85
2023-03-25T12:41:31.999Z,16.15
2023-03-25T12:46:31.910Z,15.76
2023-03-25T12:51:31.825Z,15.15
2023-03-25T12:56:31.739Z,14.68
2023-03-25T13:01:31.776Z,14.87
2023-03-25T13:06:31.584Z,15.38
2023-03-25T13:11:31.663Z,15.24
2023-03-25T13:16:31.495Z,15.24
2023-03-25T13:21:31.401Z,15.78
2023-03-25T13:26:31.310Z,16.20
2023-03-25T13:31:31.345Z,16.31
2023-03-25T13:36:31.179Z,16.14
2023-03-25T13:41:31.115Z,16.06
2023-03-25T13:46:31.128Z,16.03
2023-03-25T13:51:30.968Z,15.96
2023-03-25T13:56:30.993Z,16.06
2023-03-25T14:01:30.908Z,16.49
2023-03-25T14:06:30.808Z,16.68
2023-03-25T14:11:30.706Z,16.81
2023-03-25T14:16:30.709Z,16.49
2023-03-25T14:21:30.601Z,16.41
2023-03-25T14:26:30.505Z,16.12
2023-03-25T14:31:30.495Z,16.34
2023-03-25T14:36:30.376Z,16.31
2023-03-25T14:41:30.319Z,15.88
2023-03-25T14:46:30.324Z,14.31
2023-03-25T14:51:30.274Z,12.74
2023-03-25T14:56:30.149Z,11.86
2023-03-25T15:01:30.146Z,11.93
2023-03-25T15:06:30.001Z,11.49
2023-03-25T15:11:29.911Z,11.31
2023-03-25T15:16:29.903Z,11.16
2023-03-25T15:21:29.786Z,11.09
2023-03-25T15:26:29.711Z,11.21
2023-03-25T15:31:29.724Z,11.44
2023-03-25T15:36:29.575Z,11.52
2023-03-25T15:41:29.532Z,11.67
2023-03-25T15:46:29.459Z,11.86
2023-03-25T15:51:29.383Z,12.31
2023-03-25T15:56:29.355Z,12.60
2023-03-25T16:01:29.313Z,12.87
2023-03-25T16:06:29.192Z,12.63
2023-03-25T16:11:29.118Z,12.82
2023-03-25T16:16:29.175Z,12.82
2023-03-25T16:21:29.022Z,12.74
2023-03-25T16:26:29.068Z,12.77
2023-03-25T16:31:29.052Z,12.74
2023-03-25T16:36:28.775Z,12.77
2023-03-25T16:41:28.752Z,12.70
2023-03-25T16:46:28.661Z,12.46
2023-03-25T16:51:28.576Z,12.33
2023-03-25T16:56:28.548Z,11.93
2023-03-25T17:01:28.476Z,11.53
2023-03-25T17:06:28.365Z,11.44
2023-03-25T17:11:28.406Z,11.29
2023-03-25T17:16:28.273Z,11.27
2023-03-25T17:21:28.172Z,10.86
2023-03-25T17:26:28.217Z,10.66
2023-03-25T17:31:28.270Z,10.44
2023-03-25T17:36:27.957Z,10.14
2023-03-25T17:41:27.893Z,9.97
2023-03-25T17:46:27.855Z,9.86
2023-03-25T17:51:27.773Z,9.82
2023-03-25T17:56:27.708Z,9.66
2023-03-25T18:01:27.686Z,9.63
2023-03-25T18:06:27.571Z,9.67
2023-03-25T18:11:27.513Z,9.57
2023-03-25T18:16:27.475Z,9.53
2023-03-25T18:21:27.369Z,9.49
2023-03-25T18:26:27.382Z,9.68
2023-03-25T18:31:27.280Z,9.97
2023-03-25T18:36:27.180Z,10.04
2023-03-25T18:41:27.118Z,10.12
2023-03-25T18:46:27.044Z,10.65
2023-03-25T18:51:26.978Z,11.06
2023-03-25T18:56:26.919Z,11.10
2023-03-25T19:01:26.926Z,10.99
2023-03-25T19:06:26.772Z,11.01
2023-03-25T19:11:26.702Z,10.95
2023-03-25T19:16:26.666Z,10.74
2023-03-25T19:21:26.585Z,10.59
2023-03-25T19:26:26.495Z,10.37
2023-03-25T19:31:26.490Z,10.42
2023-03-25T19:36:26.359Z,10.47
2023-03-25T19:41:26.298Z,10.78
2023-03-25T19:46:26.253Z,10.91
2023-03-25T19:51:26.154Z,11.82
2023-03-25T19:56:26.085Z,12.15
2023-03-25T20:01:26.153Z,12.16
2023-03-25T20:06:25.985Z,12.11
2023-03-25T20:11:25.886Z,11.87
2023-03-25T20:16:25.847Z,11.78
2023-03-25T20:21:25.759Z,11.80
2023-03-25T20:26:25.705Z,11.97
2023-03-25T20:31:25.661Z,11.50
2023-03-25T20:36:25.559Z,11.03
2023-03-25T20:41:25.515Z,10.95
2023-03-25T20:46:25.531Z,10.76
2023-03-25T20:51:25.378Z,10.70
2023-03-25T20:56:25.292Z,10.56
2023-03-25T21:01:25.270Z,10.36
2023-03-25T21:06:28.109Z,10.07
2023-03-25T21:11:25.101Z,9.93
2023-03-25T21:16:25.085Z,9.96
2023-03-25T21:21:24.957Z,10.06
2023-03-25T21:26:24.892Z,10.03
2023-03-25T21:31:24.868Z,10.04
2023-03-25T21:36:24.775Z,9.91
2023-03-25T21:41:24.718Z,9.99
2023-03-25T21:46:24.662Z,9.94
2023-03-25T21:51:24.573Z,10.03
2023-03-25T21:56:24.513Z,9.96
2023-03-25T22:01:24.449Z,9.94
2023-03-25T22:06:24.400Z,10.25
2023-03-25T22:11:24.314Z,10.51
2023-03-25T22:16:24.312Z,10.77
2023-03-25T22:21:24.162Z,11.13
2023-03-25T22:26:24.154Z,11.24
2023-03-25T22:31:24.075Z,11.68
2023-03-25T22:36:23.954Z,11.78
2023-03-25T22:41:23.903Z,11.67
2023-03-25T22:46:23.849Z,11.64
2023-03-25T22:51:23.758Z,11.62
2023-03-25T22:56:23.715Z,11.70
2023-03-25T23:01:23.804Z,11.77
2023-03-25T23:06:23.554Z,11.71
2023-03-25T23:11:23.515Z,11.70
2023-03-25T23:16:23.524Z,11.65
2023-03-25T23:21:23.368Z,11.64
2023-03-25T23:26:23.303Z,11.29
2023-03-25T23:31:23.263Z,11.03
2023-03-25T23:36:23.172Z,10.94
2023-03-25T23:41:23.216Z,10.71
2023-03-25T23:46:23.072Z,10.65
2023-03-25T23:51:22.970Z,10.26
2023-03-25T23:56:22.893Z,10.21
